createdAt,value
2022-12-05T00:01:21.976Z,2.90
2022-12-05T00:04:10.954Z,2.90
2022-12-05T00:07:01.530Z,2.90
2022-12-05T00:09:49.431Z,2.90
2022-12-05T00:12:37.285Z,2.90
2022-12-05T00:15:26.534Z,2.90
2022-12-05T00:18:14.422Z,2.80
2022-12-05T00:21:02.449Z,2.80
2022-12-05T00:23:50.931Z,2.70
2022-12-05T00:26:38.859Z,2.80
2022-12-05T00:29:26.894Z,2.80
2022-12-05T00:32:16.141Z,2.80
2022-12-05T00:35:04.170Z,2.80
2022-12-05T00:37:52.058Z,2.80
2022-12-05T00:40:39.893Z,2.80
2022-12-05T00:43:28.178Z,2.80
2022-12-05T00:46:16.944Z,2.70
2022-12-05T00:49:07.434Z,2.80
2022-12-05T00:51:55.354Z,2.70
2022-12-05T00:54:43.229Z,2.70
2022-12-05T00:57:31.103Z,2.70
2022-12-05T01:00:19.533Z,2.80
2022-12-05T01:03:07.490Z,2.80
2022-12-05T01:05:56.836Z,2.80
2022-12-05T01:08:44.777Z,2.80
2022-12-05T01:11:37.652Z,2.80
2022-12-05T01:14:28.851Z,2.70
2022-12-05T01:17:16.745Z,2.70
2022-12-05T01:20:05.172Z,2.70
2022-12-05T01:22:54.481Z,2.80
2022-12-05T01:25:42.823Z,2.80
2022-12-05T01:28:30.786Z,2.80
2022-12-05T01:31:20.087Z,2.80
2022-12-05T01:34:13.882Z,2.80
2022-12-05T01:37:01.784Z,2.80
2022-12-05T01:39:51.112Z,2.80
2022-12-05T01:42:40.320Z,2.70
2022-12-05T01:45:32.837Z,2.80
2022-12-05T01:48:22.583Z,2.80
2022-12-05T01:51:10.424Z,2.80
2022-12-05T01:53:58.338Z,2.80
2022-12-05T01:56:51.428Z,2.80
2022-12-05T01:59:40.661Z,2.80
2022-12-05T02:02:29.029Z,2.80
2022-12-05T02:05:18.882Z,2.80
2022-12-05T02:08:07.932Z,2.80
2022-12-05T02:10:57.385Z,2.80
2022-12-05T02:14:01.328Z,2.80
2022-12-05T02:16:56.421Z,2.80
2022-12-05T02:19:51.324Z,2.90
2022-12-05T02:22:59.703Z,2.90
2022-12-05T02:26:14.848Z,2.80
2022-12-05T02:29:27.483Z,2.80
2022-12-05T02:32:19.185Z,2.80
2022-12-05T02:35:13.956Z,2.80
2022-12-05T02:38:05.712Z,2.80
2022-12-05T02:40:57.343Z,2.80
2022-12-05T02:43:48.076Z,2.70
2022-12-05T02:46:38.295Z,2.80
2022-12-05T02:49:29.779Z,2.70
2022-12-05T02:52:18.034Z,2.70
2022-12-05T02:55:08.453Z,2.70
2022-12-05T02:57:59.089Z,2.70
2022-12-05T03:00:49.233Z,2.80
2022-12-05T03:03:37.669Z,2.70
2022-12-05T03:06:28.501Z,2.70
2022-12-05T03:09:17.777Z,2.70
2022-12-05T03:12:08.708Z,2.80
2022-12-05T03:14:59.435Z,2.70
2022-12-05T03:17:49.622Z,2.70
2022-12-05T03:20:39.740Z,2.70
2022-12-05T03:23:30.608Z,2.70
2022-12-05T03:26:25.451Z,2.70
2022-12-05T03:29:20.901Z,2.70
2022-12-05T03:32:11.847Z,2.80
2022-12-05T03:35:04.488Z,2.80
2022-12-05T03:37:53.688Z,2.80
2022-12-05T03:40:45.811Z,2.80
2022-12-05T03:43:37.276Z,2.80
2022-12-05T03:46:27.615Z,2.80
2022-12-05T03:49:18.566Z,2.80
2022-12-05T03:52:09.322Z,2.80
2022-12-05T03:54:58.700Z,2.80
2022-12-05T03:57:50.950Z,2.80
2022-12-05T04:00:41.358Z,2.80
2022-12-05T04:03:39.141Z,2.80
2022-12-05T04:06:29.656Z,2.80
2022-12-05T04:09:20.697Z,2.80
2022-12-05T04:12:11.539Z,2.80
2022-12-05T04:15:02.881Z,2.80
2022-12-05T04:17:53.916Z,2.70
2022-12-05T04:21:00.555Z,2.70
2022-12-05T04:24:08.646Z,2.80
2022-12-05T04:26:58.712Z,2.80
2022-12-05T04:29:53.411Z,2.80
2022-12-05T04:32:45.991Z,2.80
2022-12-05T04:35:36.019Z,2.80
2022-12-05T04:38:26.370Z,2.80
2022-12-05T04:41:17.431Z,2.80
2022-12-05T04:44:08.589Z,2.80
2022-12-05T04:46:57.928Z,2.80
2022-12-05T04:49:53.390Z,2.80
2022-12-05T04:52:42.623Z,2.90
2022-12-05T04:55:32.773Z,2.80
2022-12-05T04:58:22.194Z,2.80
2022-12-05T05:01:12.646Z,2.80
2022-12-05T05:04:01.691Z,2.80
2022-12-05T05:06:50.968Z,2.90
2022-12-05T05:09:39.124Z,2.80
2022-12-05T05:12:26.968Z,2.80
2022-12-05T05:15:14.985Z,2.80
2022-12-05T05:18:02.880Z,2.80
2022-12-05T05:20:50.772Z,2.80
2022-12-05T05:23:39.992Z,2.80
2022-12-05T05:26:29.335Z,2.80
2022-12-05T05:29:17.438Z,2.80
2022-12-05T05:32:05.346Z,2.80
2022-12-05T05:34:53.212Z,2.80
2022-12-05T05:37:41.436Z,2.80
2022-12-05T05:40:30.928Z,2.80
2022-12-05T05:43:18.832Z,2.70
2022-12-05T05:46:07.000Z,2.80
2022-12-05T05:48:55.241Z,2.70
2022-12-05T05:51:43.199Z,2.70
2022-12-05T05:54:32.250Z,2.70
2022-12-05T05:57:21.547Z,2.70
2022-12-05T06:00:10.421Z,2.70
2022-12-05T06:02:58.832Z,2.70
2022-12-05T06:05:52.903Z,2.70
2022-12-05T06:08:42.077Z,2.60
2022-12-05T06:11:30.824Z,2.70
2022-12-05T06:14:20.125Z,2.70
2022-12-05T06:17:08.016Z,2.70
2022-12-05T06:19:56.043Z,2.70
2022-12-05T06:22:44.197Z,2.70
2022-12-05T06:25:32.188Z,2.70
2022-12-05T06:28:21.092Z,2.70
2022-12-05T06:31:11.039Z,2.70
2022-12-05T06:34:00.923Z,2.60
2022-12-05T06:36:48.828Z,2.60
2022-12-05T06:39:36.767Z,2.60
2022-12-05T06:42:24.613Z,2.60
2022-12-05T06:45:13.089Z,2.60
2022-12-05T06:48:02.295Z,2.60
2022-12-05T06:50:50.711Z,2.60
2022-12-05T06:53:38.730Z,2.60
2022-12-05T06:56:26.702Z,2.60
2022-12-05T06:59:14.554Z,2.50
2022-12-05T07:02:01.458Z,2.50
2022-12-05T07:04:50.726Z,2.60
2022-12-05T07:07:38.769Z,2.60
2022-12-05T07:10:26.719Z,2.60
2022-12-05T07:13:16.124Z,2.50
2022-12-05T07:16:07.082Z,2.50
2022-12-05T07:18:55.172Z,2.50
2022-12-05T07:21:44.400Z,2.50
2022-12-05T07:24:32.297Z,2.50
2022-12-05T07:27:26.572Z,2.50
2022-12-05T07:30:16.824Z,2.50
2022-12-05T07:33:04.926Z,2.60
2022-12-05T07:35:52.796Z,2.60
2022-12-05T07:38:42.302Z,2.60
2022-12-05T07:41:31.115Z,2.60
2022-12-05T07:44:18.979Z,2.60
2022-12-05T07:47:06.875Z,2.60
2022-12-05T07:49:54.846Z,2.60
2022-12-05T07:52:43.018Z,2.60
2022-12-05T07:55:32.466Z,2.60
2022-12-05T07:58:20.309Z,2.60
2022-12-05T08:01:08.896Z,2.60
2022-12-05T08:03:57.470Z,2.60
2022-12-05T08:06:45.432Z,2.60
2022-12-05T08:09:33.252Z,2.60
2022-12-05T08:12:22.619Z,2.60
2022-12-05T08:15:11.096Z,2.60
2022-12-05T08:17:58.996Z,2.70
2022-12-05T08:20:46.855Z,2.70
2022-12-05T08:23:35.425Z,2.70
2022-12-05T08:26:24.689Z,2.80
2022-12-05T08:29:14.766Z,2.80
2022-12-05T08:32:02.883Z,2.80
2022-12-05T08:34:51.200Z,2.90
2022-12-05T08:37:39.113Z,2.90
2022-12-05T08:40:27.192Z,2.90
2022-12-05T08:43:15.059Z,3.00
2022-12-05T08:46:05.148Z,3.00
2022-12-05T08:48:53.096Z,3.00
2022-12-05T08:51:41.219Z,3.00
2022-12-05T08:54:29.084Z,3.10
2022-12-05T08:57:16.936Z,3.10
2022-12-05T09:00:05.994Z,3.10
2022-12-05T09:02:55.342Z,3.20
2022-12-05T09:05:43.257Z,3.20
2022-12-05T09:08:31.153Z,3.20
2022-12-05T09:11:19.952Z,3.20
2022-12-05T09:14:07.802Z,3.20
2022-12-05T09:16:55.694Z,3.20
2022-12-05T09:19:45.099Z,3.30
2022-12-05T09:22:33.027Z,3.40
2022-12-05T09:25:20.939Z,3.30
2022-12-05T09:28:08.833Z,3.40
2022-12-05T09:30:57.283Z,3.40
2022-12-05T09:33:45.839Z,3.40
2022-12-05T09:36:35.187Z,3.40
2022-12-05T09:39:23.285Z,3.50
2022-12-05T09:42:38.330Z,3.50
2022-12-05T09:45:29.910Z,3.50
2022-12-05T09:48:20.148Z,3.50
2022-12-05T09:51:10.131Z,3.60
2022-12-05T09:53:59.394Z,3.60
2022-12-05T09:56:49.938Z,3.70
2022-12-05T09:59:37.813Z,3.70
2022-12-05T10:02:29.364Z,3.70
2022-12-05T10:05:19.829Z,3.60
2022-12-05T10:08:12.070Z,3.60
2022-12-05T10:11:03.230Z,3.60
2022-12-05T10:13:55.132Z,3.60
2022-12-05T10:16:48.188Z,3.60
2022-12-05T10:19:39.603Z,3.60
2022-12-05T10:22:29.885Z,3.70
2022-12-05T10:25:19.374Z,3.70
2022-12-05T10:28:16.597Z,3.70
2022-12-05T10:31:07.006Z,3.70
2022-12-05T10:33:59.372Z,3.90
2022-12-05T10:36:54.530Z,4.10
2022-12-05T10:39:42.543Z,4.20
2022-12-05T10:42:32.680Z,4.30
2022-12-05T10:45:23.144Z,4.40
2022-12-05T10:48:12.452Z,4.40
2022-12-05T10:51:00.978Z,4.40
2022-12-05T10:53:50.553Z,4.40
2022-12-05T10:56:39.457Z,4.40
2022-12-05T10:59:45.366Z,4.50
2022-12-05T11:02:36.842Z,4.40
2022-12-05T11:05:29.178Z,4.50
2022-12-05T11:08:41.483Z,4.50
2022-12-05T11:11:33.315Z,4.60
2022-12-05T11:14:22.724Z,4.50
2022-12-05T11:17:22.772Z,4.50
2022-12-05T11:20:25.679Z,4.50
2022-12-05T11:23:23.128Z,4.50
2022-12-05T11:26:17.735Z,4.50
2022-12-05T11:29:05.781Z,4.50
2022-12-05T11:31:53.685Z,4.40
2022-12-05T11:34:45.389Z,4.40
2022-12-05T11:37:36.418Z,4.40
2022-12-05T11:40:33.962Z,4.40
2022-12-05T11:43:36.671Z,4.40
2022-12-05T11:46:27.892Z,4.40
2022-12-05T11:49:26.987Z,4.40
2022-12-05T11:52:23.020Z,4.40
2022-12-05T11:55:15.090Z,4.30
2022-12-05T11:58:21.836Z,4.30
2022-12-05T12:01:18.347Z,4.30
2022-12-05T12:04:21.119Z,4.20
2022-12-05T12:07:17.199Z,4.30
2022-12-05T12:10:10.198Z,4.20
2022-12-05T12:13:05.919Z,4.20
2022-12-05T12:16:08.519Z,4.10
2022-12-05T12:19:07.390Z,4.20
2022-12-05T12:22:04.444Z,4.10
2022-12-05T12:24:59.524Z,4.10
2022-12-05T12:27:53.607Z,4.10
2022-12-05T12:30:49.774Z,4.10
2022-12-05T12:33:41.233Z,4.10
2022-12-05T12:36:31.793Z,4.10
2022-12-05T12:39:27.436Z,4.10
2022-12-05T12:42:23.097Z,4.10
2022-12-05T12:45:21.933Z,4.10
2022-12-05T12:48:14.112Z,4.10
2022-12-05T12:51:03.916Z,4.00
2022-12-05T12:54:00.802Z,4.00
2022-12-05T12:56:54.142Z,4.10
2022-12-05T12:59:51.078Z,4.00
2022-12-05T13:02:43.712Z,4.00
2022-12-05T13:05:34.284Z,4.00
2022-12-05T13:08:27.839Z,4.00
2022-12-05T13:11:16.921Z,4.00
2022-12-05T13:14:05.852Z,4.00
2022-12-05T13:16:55.252Z,4.00
2022-12-05T13:19:44.595Z,4.00
2022-12-05T13:22:32.947Z,4.00
2022-12-05T13:25:25.596Z,4.00
2022-12-05T13:28:25.792Z,4.00
2022-12-05T13:31:17.070Z,4.00
2022-12-05T13:34:05.422Z,4.00
2022-12-05T13:37:11.079Z,3.90
2022-12-05T13:40:17.102Z,4.00
2022-12-05T13:43:06.814Z,4.00
2022-12-05T13:46:00.566Z,4.00
2022-12-05T13:48:50.207Z,4.00
2022-12-05T13:51:39.110Z,4.00
2022-12-05T13:54:29.000Z,4.00
2022-12-05T13:57:35.725Z,4.00
2022-12-05T14:00:29.842Z,3.90
2022-12-05T14:03:19.654Z,3.90
2022-12-05T14:06:08.217Z,3.90
2022-12-05T14:08:56.239Z,3.90
2022-12-05T14:12:16.005Z,3.90
2022-12-05T14:15:05.670Z,3.90
2022-12-05T14:17:57.938Z,3.90
2022-12-05T14:20:50.430Z,3.90
2022-12-05T14:23:54.224Z,3.90
2022-12-05T14:26:48.705Z,3.90
2022-12-05T14:29:39.920Z,3.90
2022-12-05T14:32:32.390Z,3.90
2022-12-05T14:35:22.221Z,3.90
2022-12-05T14:38:21.435Z,3.90
2022-12-05T14:41:13.915Z,3.90
2022-12-05T14:44:08.121Z,3.80
2022-12-05T14:46:58.828Z,3.80
2022-12-05T14:49:57.882Z,3.80
2022-12-05T14:52:47.142Z,3.90
2022-12-05T14:55:37.108Z,3.90
2022-12-05T14:58:31.278Z,3.80
2022-12-05T15:01:21.293Z,3.80
2022-12-05T15:04:11.417Z,3.80
2022-12-05T15:07:03.121Z,3.80
2022-12-05T15:09:58.725Z,3.80
2022-12-05T15:12:48.930Z,3.80
2022-12-05T15:15:41.644Z,3.80
2022-12-05T15:18:31.235Z,3.80
2022-12-05T15:21:22.988Z,3.80
2022-12-05T15:24:14.997Z,3.80
2022-12-05T15:27:04.578Z,3.80
2022-12-05T15:29:56.522Z,3.80
2022-12-05T15:32:44.575Z,3.60
2022-12-05T15:35:33.694Z,3.80
2022-12-05T15:38:27.473Z,3.80
2022-12-05T15:41:19.516Z,3.80
2022-12-05T15:44:07.403Z,3.80
2022-12-05T15:46:55.905Z,3.80
2022-12-05T15:49:43.812Z,3.80
2022-12-05T15:52:35.123Z,3.80
2022-12-05T15:55:26.288Z,3.80
2022-12-05T15:58:21.479Z,3.80
2022-12-05T16:01:11.666Z,3.80
2022-12-05T16:04:02.567Z,3.80
2022-12-05T16:06:51.747Z,3.80
2022-12-05T16:09:41.069Z,3.90
2022-12-05T16:12:34.528Z,3.80
2022-12-05T16:15:25.058Z,3.80
2022-12-05T16:18:23.517Z,3.70
2022-12-05T16:21:27.393Z,3.80
2022-12-05T16:24:18.659Z,3.80
2022-12-05T16:27:07.679Z,3.80
2022-12-05T16:30:13.451Z,3.80
2022-12-05T16:33:04.419Z,3.70
2022-12-05T16:35:52.340Z,3.70
2022-12-05T16:38:41.051Z,3.70
2022-12-05T16:41:33.885Z,3.80
2022-12-05T16:44:57.638Z,3.80
2022-12-05T16:47:56.641Z,3.80
2022-12-05T16:50:46.208Z,3.70
2022-12-05T16:53:34.110Z,3.70
2022-12-05T16:56:24.212Z,3.80
2022-12-05T16:59:15.485Z,3.80
2022-12-05T17:02:04.610Z,3.80
2022-12-05T17:04:53.566Z,3.80
2022-12-05T17:07:42.851Z,3.70
2022-12-05T17:10:30.771Z,3.80
2022-12-05T17:13:19.308Z,3.90
2022-12-05T17:16:07.799Z,3.80
2022-12-05T17:18:56.070Z,3.80
2022-12-05T17:21:44.281Z,3.80
2022-12-05T17:24:33.554Z,3.80
2022-12-05T17:27:21.423Z,3.80
2022-12-05T17:30:10.027Z,3.80
2022-12-05T17:32:57.994Z,3.70
2022-12-05T17:35:46.188Z,3.70
2022-12-05T17:38:34.124Z,3.80
2022-12-05T17:41:24.413Z,3.80
2022-12-05T17:44:13.957Z,3.70
2022-12-05T17:47:07.496Z,3.80
2022-12-05T17:49:56.457Z,3.80
2022-12-05T17:52:45.109Z,3.80
2022-12-05T17:55:33.106Z,3.80
2022-12-05T17:58:22.504Z,3.80
2022-12-05T18:01:12.529Z,3.80
2022-12-05T18:04:00.493Z,3.80
2022-12-05T18:06:48.409Z,3.80
2022-12-05T18:09:36.321Z,3.80
2022-12-05T18:12:24.290Z,3.80
2022-12-05T18:15:13.692Z,3.80
2022-12-05T18:18:03.311Z,3.80
2022-12-05T18:20:51.776Z,3.80
2022-12-05T18:23:40.135Z,3.80
2022-12-05T18:26:28.123Z,3.80
2022-12-05T18:29:16.091Z,3.80
2022-12-05T18:32:05.615Z,3.80
2022-12-05T18:34:53.569Z,3.80
2022-12-05T18:37:41.717Z,3.80
2022-12-05T18:40:29.606Z,3.80
2022-12-05T18:43:17.468Z,3.80
2022-12-05T18:46:05.838Z,3.80
2022-12-05T18:48:58.932Z,3.70
2022-12-05T18:51:49.678Z,3.70
2022-12-05T18:54:37.548Z,3.70
2022-12-05T18:57:25.389Z,3.70
2022-12-05T19:00:14.020Z,3.80
2022-12-05T19:03:06.528Z,3.70
2022-12-05T19:05:58.471Z,3.70
2022-12-05T19:08:46.434Z,3.70
2022-12-05T19:11:34.843Z,3.80
2022-12-05T19:14:22.725Z,3.70
2022-12-05T19:17:10.647Z,3.70
2022-12-05T19:19:58.849Z,3.80
2022-12-05T19:22:48.090Z,3.80
2022-12-05T19:25:36.045Z,3.70
2022-12-05T19:28:23.908Z,3.70
2022-12-05T19:31:12.593Z,3.70
2022-12-05T19:34:01.283Z,3.80
2022-12-05T19:36:51.410Z,3.70
2022-12-05T19:39:40.804Z,3.70
2022-12-05T19:42:29.501Z,3.70
2022-12-05T19:45:18.134Z,3.70
2022-12-05T19:48:06.411Z,3.70
2022-12-05T19:50:55.575Z,3.70
2022-12-05T19:53:44.144Z,3.80
2022-12-05T19:56:34.320Z,3.70
2022-12-05T19:59:22.349Z,3.70
2022-12-05T20:02:10.253Z,3.80
2022-12-05T20:04:59.287Z,3.80
2022-12-05T20:07:47.944Z,3.80
2022-12-05T20:11:04.357Z,3.70
2022-12-05T20:13:55.268Z,3.70
2022-12-05T20:16:43.679Z,3.80
2022-12-05T20:19:31.970Z,3.70
2022-12-05T20:22:20.188Z,3.70
2022-12-05T20:25:09.130Z,3.80
2022-12-05T20:27:59.080Z,3.70
2022-12-05T20:30:49.534Z,3.70
2022-12-05T20:33:37.963Z,3.70
2022-12-05T20:36:26.500Z,3.70
2022-12-05T20:39:15.085Z,3.60
2022-12-05T20:42:02.927Z,3.70
2022-12-05T20:44:50.796Z,3.60
2022-12-05T20:47:39.991Z,3.60
2022-12-05T20:50:30.308Z,3.60
2022-12-05T20:53:20.827Z,3.60
2022-12-05T20:56:09.885Z,3.50
2022-12-05T20:58:58.734Z,3.60
2022-12-05T21:01:47.521Z,3.60
2022-12-05T21:04:40.510Z,3.70
2022-12-05T21:07:28.362Z,3.60
2022-12-05T21:10:16.263Z,3.70
2022-12-05T21:13:04.424Z,3.70
2022-12-05T21:15:52.322Z,3.70
2022-12-05T21:18:40.430Z,3.60
2022-12-05T21:21:31.895Z,3.60
2022-12-05T21:24:22.141Z,3.60
2022-12-05T21:27:09.976Z,3.60
2022-12-05T21:29:58.120Z,3.60
2022-12-05T21:32:46.157Z,3.50
2022-12-05T21:35:34.073Z,3.60
2022-12-05T21:38:23.254Z,3.60
2022-12-05T21:41:11.947Z,3.60
2022-12-05T21:44:00.881Z,3.50
2022-12-05T21:46:49.423Z,3.60
2022-12-05T21:49:37.310Z,3.60
2022-12-05T21:52:25.174Z,3.60
2022-12-05T21:55:14.364Z,3.60
2022-12-05T21:58:03.396Z,3.60
2022-12-05T22:00:51.676Z,3.60
2022-12-05T22:03:39.554Z,3.60
2022-12-05T22:06:27.449Z,3.60
2022-12-05T22:09:15.436Z,3.60
2022-12-05T22:12:04.851Z,3.60
2022-12-05T22:14:53.060Z,3.60
2022-12-05T22:17:40.925Z,3.70
2022-12-05T22:20:28.903Z,3.70
2022-12-05T22:23:17.076Z,3.70
2022-12-05T22:26:06.361Z,3.70
2022-12-05T22:28:56.030Z,3.70
2022-12-05T22:31:43.928Z,3.70
2022-12-05T22:34:31.823Z,3.70
2022-12-05T22:37:19.675Z,3.60
2022-12-05T22:40:08.242Z,3.60
2022-12-05T22:42:56.115Z,3.60
2022-12-05T22:45:45.350Z,3.60
2022-12-05T22:48:33.279Z,3.60
2022-12-05T22:51:21.995Z,3.60
2022-12-05T22:54:09.853Z,3.60
2022-12-05T22:56:57.723Z,3.60
2022-12-05T22:59:45.579Z,3.60
2022-12-05T23:02:35.147Z,3.60
2022-12-05T23:05:23.131Z,3.60
2022-12-05T23:08:11.260Z,3.50
2022-12-05T23:10:59.243Z,3.50
2022-12-05T23:13:47.900Z,3.50
2022-12-05T23:16:35.867Z,3.60
2022-12-05T23:19:25.240Z,3.60
2022-12-05T23:22:13.176Z,3.60
2022-12-05T23:25:01.097Z,3.50
2022-12-05T23:27:49.001Z,3.60
2022-12-05T23:30:36.921Z,3.60
2022-12-05T23:33:25.075Z,3.60
2022-12-05T23:36:14.383Z,3.60
2022-12-05T23:39:02.672Z,3.60
2022-12-05T23:41:50.900Z,3.60
2022-12-05T23:44:39.135Z,3.60
2022-12-05T23:47:27.333Z,3.60
2022-12-05T23:50:15.342Z,3.60
2022-12-05T23:53:04.752Z,3.60
2022-12-05T23:55:52.691Z,3.60
2022-12-05T23:58:40.895Z,3.60
